Time;durP1;ratioP1;P1;durP2;ratioP2;P2;SDS_P1;SDS_P2;PMS_P1;PMS_P2;Temp;Humidity;BMP_temperature;BMP_pressure;BME280_temperature;BME280_humidity;BME280_pressure;Samples;Min_cycle;Max_cycle;Signal;HPM_P1;HPM_P2
2021/03/29 00:02:15;;;;;;;2.80;1.53;;;7.90;1.00;;;;;;5049777;28;589763;-75
2021/03/29 00:04:41;;;;;;;3.83;1.47;;;7.90;1.00;;;;;;5069333;28;20194;-74
2021/03/29 00:07:07;;;;;;;2.67;1.60;;;7.80;1.00;;;;;;5077189;28;20861;-74
2021/03/29 00:09:36;;;;;;;10.63;2.10;;;7.80;1.00;;;;;;5076148;28;20393;-74
2021/03/29 00:12:04;;;;;;;7.73;2.10;;;7.80;1.00;;;;;;5062097;28;20503;-74
2021/03/29 00:14:31;;;;;;;3.57;1.70;;;7.80;1.00;;;;;;5074751;28;20453;-74
2021/03/29 00:16:57;;;;;;;8.13;2.20;;;7.80;1.00;;;;;;5076166;28;20469;-74
2021/03/29 00:19:30;;;;;;;1.30;1.20;;;7.70;1.00;;;;;;5073989;28;20931;-74
2021/03/29 00:21:57;;;;;;;7.10;1.70;;;7.70;1.00;;;;;;5075551;28;20900;-74
2021/03/29 00:24:23;;;;;;;4.50;2.17;;;7.70;1.00;;;;;;5074863;28;20417;-74
2021/03/29 00:26:50;;;;;;;1.87;1.33;;;7.60;1.00;;;;;;5076672;28;20447;-74
2021/03/29 00:29:16;;;;;;;4.33;1.50;;;;;;;;;;5075597;28;20394;-74
2021/03/29 00:31:42;;;;;;;3.33;2.00;;;7.50;1.00;;;;;;5075970;28;20420;-74
2021/03/29 00:34:08;;;;;;;4.33;2.00;;;7.50;1.00;;;;;;5075681;28;20432;-74
2021/03/29 00:36:35;;;;;;;1.57;1.47;;;7.40;1.00;;;;;;5075568;28;20433;-74
2021/03/29 00:39:06;;;;;;;4.37;1.70;;;7.40;1.00;;;;;;5071195;28;20416;-74
2021/03/29 00:41:40;;;;;;;1.50;1.40;;;7.30;1.00;;;;;;5071480;28;20401;-74
2021/03/29 00:44:10;;;;;;;2.07;1.43;;;7.30;1.00;;;;;;5076501;28;20390;-74
2021/03/29 00:46:39;;;;;;;5.53;1.43;;;7.20;1.00;;;;;;5072784;28;20892;-74
2021/03/29 00:49:05;;;;;;;5.50;1.87;;;7.20;1.00;;;;;;5076276;28;20392;-74
2021/03/29 00:51:39;;;;;;;7.63;2.33;;;7.20;1.00;;;;;;5069187;28;20414;-74
2021/03/29 00:54:16;;;;;;;2.97;1.50;;;7.20;1.00;;;;;;5056113;28;20853;-74
2021/03/29 00:56:45;;;;;;;1.77;1.20;;;7.10;1.00;;;;;;5075765;28;20860;-74
2021/03/29 00:59:11;;;;;;;4.50;1.77;;;7.10;1.00;;;;;;5076113;28;20398;-74
2021/03/29 01:01:48;;;;;;;8.63;1.83;;;7.10;1.00;;;;;;5075902;28;20432;-74
2021/03/29 01:04:15;;;;;;;5.30;1.70;;;7.00;1.00;;;;;;5076126;28;20732;-74
2021/03/29 01:06:48;;;;;;;2.10;1.60;;;7.10;1.00;;;;;;5067034;28;20989;-74
2021/03/29 01:09:17;;;;;;;3.60;1.87;;;7.00;1.00;;;;;;5056280;28;20411;-74
2021/03/29 01:11:58;;;;;;;4.17;1.70;;;7.00;1.00;;;;;;5056074;28;20406;-74
2021/03/29 01:14:40;;;;;;;4.83;1.70;;;6.90;1.00;;;;;;5055704;28;20401;-74
2021/03/29 01:17:13;;;;;;;4.30;1.87;;;6.80;1.00;;;;;;5056591;28;20452;-74
2021/03/29 01:20:17;;;;;;;2.23;1.37;;;6.80;1.00;;;;;;5071535;28;20429;-74
2021/03/29 01:22:46;;;;;;;9.50;1.83;;;6.70;1.00;;;;;;5071795;28;20410;-74
2021/03/29 01:25:33;;;;;;;4.60;1.40;;;6.70;1.00;;;;;;5063091;28;20413;-75
2021/03/29 01:28:14;;;;;;;2.70;1.60;;;6.70;1.00;;;;;;5068717;28;20445;-75
2021/03/29 01:30:53;;;;;;;4.03;1.67;;;6.60;1.00;;;;;;5065418;28;20449;-76
2021/03/29 01:33:22;;;;;;;7.70;2.20;;;6.50;1.00;;;;;;5062863;28;20815;-75
2021/03/29 01:35:56;;;;;;;8.60;2.40;;;6.60;1.00;;;;;;5055778;28;20466;-74
2021/03/29 01:38:25;;;;;;;4.43;1.90;;;6.50;1.00;;;;;;5061449;28;20426;-74
2021/03/29 01:40:53;;;;;;;4.73;1.70;;;6.50;1.00;;;;;;5055104;28;20402;-74
2021/03/29 01:43:22;;;;;;;3.13;1.53;;;6.50;1.00;;;;;;5066294;28;20443;-74
2021/03/29 01:45:48;;;;;;;9.90;2.00;;;6.50;1.00;;;;;;5073381;28;20534;-74
2021/03/29 01:48:15;;;;;;;6.13;1.77;;;6.50;1.00;;;;;;5055854;28;20414;-74
2021/03/29 01:50:42;;;;;;;1.90;1.50;;;6.50;1.00;;;;;;5070867;28;20775;-74
2021/03/29 01:53:10;;;;;;;4.40;1.67;;;6.50;1.00;;;;;;5074337;28;20441;-74
2021/03/29 01:55:37;;;;;;;6.27;1.47;;;6.40;1.00;;;;;;5091579;28;20484;-74
2021/03/29 01:58:10;;;;;;;2.60;1.73;;;6.40;1.00;;;;;;5094013;28;20933;-74
2021/03/29 02:00:44;;;;;;;4.20;1.50;;;6.40;1.00;;;;;;5070157;28;20810;-74
2021/03/29 02:03:28;;;;;;;9.50;2.00;;;6.40;1.00;;;;;;5054596;28;20454;-74
2021/03/29 02:05:54;;;;;;;5.60;1.60;;;6.30;1.00;;;;;;5063649;28;20729;-74
2021/03/29 02:08:39;;;;;;;2.93;1.40;;;6.30;1.00;;;;;;5058653;28;20497;-74
2021/03/29 02:11:09;;;;;;;1.30;1.10;;;6.30;1.00;;;;;;5054751;28;20433;-74
2021/03/29 02:13:41;;;;;;;2.80;1.37;;;6.30;1.00;;;;;;5059328;28;20441;-74
2021/03/29 02:16:12;;;;;;;1.57;1.37;;;6.30;1.00;;;;;;5074480;28;20932;-74
2021/03/29 02:18:44;;;;;;;4.93;2.53;;;6.20;1.00;;;;;;5068480;28;20920;-74
2021/03/29 02:21:18;;;;;;;2.40;1.40;;;6.20;1.00;;;;;;5069329;28;20421;-75
2021/03/29 02:23:49;;;;;;;8.07;1.73;;;6.20;1.00;;;;;;5057388;28;21003;-75
2021/03/29 02:26:20;;;;;;;5.20;2.17;;;6.20;1.00;;;;;;5080307;28;20412;-75
2021/03/29 02:28:52;;;;;;;3.53;1.20;;;6.20;1.00;;;;;;5090873;28;20908;-75
2021/03/29 02:31:25;;;;;;;6.13;2.13;;;6.20;1.00;;;;;;5074208;28;20387;-75
2021/03/29 02:33:51;;;;;;;4.90;1.73;;;6.20;1.00;;;;;;5061157;28;20425;-75
2021/03/29 02:36:21;;;;;;;2.57;1.70;;;6.20;1.00;;;;;;5074630;28;20464;-74
2021/03/29 02:39:04;;;;;;;1.77;1.27;;;6.30;1.00;;;;;;5074519;28;20390;-74
2021/03/29 02:41:51;;;;;;;2.80;1.33;;;6.00;1.00;;;;;;5074293;28;20393;-74
2021/03/29 02:44:34;;;;;;;4.97;2.30;;;6.00;1.00;;;;;;5064920;28;20402;-74
2021/03/29 02:47:01;;;;;;;4.23;2.00;;;6.00;1.00;;;;;;5074172;28;20378;-74
2021/03/29 02:49:27;;;;;;;13.90;1.70;;;6.00;1.00;;;;;;5074248;28;20849;-74
2021/03/29 02:51:59;;;;;;;3.33;1.70;;;6.00;1.00;;;;;;5074265;28;20396;-74
2021/03/29 02:55:08;;;;;;;1.48;1.38;;;6.00;1.00;;;;;;5061587;28;20406;-74
2021/03/29 02:57:48;;;;;;;2.17;1.60;;;6.00;1.00;;;;;;5054006;28;20518;-74
2021/03/29 03:00:20;;;;;;;1.63;1.27;;;6.00;1.00;;;;;;5053798;28;20452;-74
2021/03/29 03:03:15;;;;;;;4.85;1.73;;;6.00;1.00;;;;;;5053481;28;20430;-74
2021/03/29 03:05:46;;;;;;;2.83;1.47;;;6.00;1.00;;;;;;5054839;28;20226;-74
2021/03/29 03:08:15;;;;;;;1.93;1.47;;;6.00;1.00;;;;;;5053926;28;20866;-74
2021/03/29 03:10:41;;;;;;;2.20;1.63;;;6.10;1.00;;;;;;5053689;28;20424;-74
2021/03/29 03:13:09;;;;;;;2.27;1.70;;;6.10;1.00;;;;;;5053113;28;20442;-74
2021/03/29 03:15:46;;;;;;;5.07;1.87;;;6.20;1.00;;;;;;5053682;28;20512;-74
2021/03/29 03:18:12;;;;;;;7.50;1.50;;;6.30;1.00;;;;;;5064728;28;20413;-74
2021/03/29 03:20:39;;;;;;;7.07;2.80;;;6.30;1.00;;;;;;5063181;28;20826;-74
2021/03/29 03:23:08;;;;;;;2.10;1.40;;;6.40;1.00;;;;;;5071143;28;20474;-75
2021/03/29 03:25:36;;;;;;;3.53;1.50;;;6.40;1.00;;;;;;5073166;28;20421;-75
2021/03/29 03:28:05;;;;;;;3.13;1.70;;;6.40;1.00;;;;;;5087833;28;20410;-75
2021/03/29 03:30:51;;;;;;;4.23;2.00;;;6.50;1.00;;;;;;5053933;28;20414;-75
2021/03/29 03:33:19;;;;;;;1.27;1.20;;;6.50;1.00;;;;;;5052470;28;20502;-75
2021/03/29 03:35:52;;;;;;;6.27;1.50;;;6.50;1.00;;;;;;5063957;28;20986;-75
2021/03/29 03:38:26;;;;;;;4.10;1.40;;;6.60;1.00;;;;;;5074083;28;20424;-75
2021/03/29 03:41:04;;;;;;;10.70;2.70;;;6.60;1.00;;;;;;5073635;28;20526;-75
2021/03/29 03:43:44;;;;;;;1.60;1.40;;;6.70;1.00;;;;;;5073483;28;20393;-76
2021/03/29 03:46:31;;;;;;;3.00;1.60;;;6.70;1.00;;;;;;5058047;28;20418;-75
2021/03/29 03:49:02;;;;;;;2.40;2.10;;;6.80;1.00;;;;;;5053625;28;20394;-75
2021/03/29 03:51:46;;;;;;;5.43;2.10;;;6.80;1.00;;;;;;5083296;28;20437;-74
2021/03/29 03:54:13;;;;;;;10.13;2.40;;;6.80;1.00;;;;;;5053820;28;20430;-74
2021/03/29 03:56:39;;;;;;;4.17;1.37;;;;;;;;;;5063197;28;20985;-74
2021/03/29 03:59:07;;;;;;;7.17;2.37;;;6.80;1.00;;;;;;5065792;28;20464;-74
2021/03/29 04:02:01;;;;;;;3.60;1.63;;;6.80;1.00;;;;;;5071152;28;20427;-74
2021/03/29 04:04:26;;;;;;;4.53;1.77;;;6.80;1.00;;;;;;5061257;28;20414;-74
2021/03/29 04:06:57;;;;;;;1.90;1.43;;;6.80;1.00;;;;;;5066890;28;20513;-74
2021/03/29 04:09:33;;;;;;;5.47;2.30;;;6.70;1.00;;;;;;5068983;28;20561;-74
2021/03/29 04:12:11;;;;;;;4.43;2.07;;;6.80;1.00;;;;;;5053379;28;20764;-74
2021/03/29 04:14:37;;;;;;;4.40;2.37;;;6.80;1.00;;;;;;5059563;28;20405;-74
2021/03/29 04:17:03;;;;;;;4.50;1.57;;;6.80;1.00;;;;;;5067828;28;20406;-74
2021/03/29 04:19:34;;;;;;;4.43;1.80;;;6.70;1.00;;;;;;5074760;28;20405;-74
2021/03/29 04:22:01;;;;;;;2.83;1.90;;;;;;;;;;5067715;28;20482;-74
2021/03/29 04:24:27;;;;;;;8.60;2.80;;;6.70;1.00;;;;;;5074634;28;20389;-74
2021/03/29 04:26:57;;;;;;;5.43;1.77;;;6.60;1.00;;;;;;5085597;28;20756;-74
2021/03/29 04:29:27;;;;;;;5.70;2.60;;;6.50;1.00;;;;;;5061197;28;20458;-74
2021/03/29 04:31:57;;;;;;;1.83;1.37;;;6.50;1.00;;;;;;5076192;28;20420;-74
2021/03/29 04:34:27;;;;;;;1.37;1.27;;;6.40;1.00;;;;;;5076474;28;20484;-75
2021/03/29 04:36:53;;;;;;;2.43;1.37;;;6.30;1.00;;;;;;5075300;28;20424;-75
2021/03/29 04:39:21;;;;;;;4.67;1.93;;;6.30;1.00;;;;;;5071067;28;20411;-74
2021/03/29 04:42:03;;;;;;;11.53;2.20;;;6.30;1.00;;;;;;5076624;28;20159;-74
2021/03/29 04:44:33;;;;;;;2.53;1.83;;;6.20;1.00;;;;;;5070147;28;20418;-74
2021/03/29 04:46:59;;;;;;;3.70;1.70;;;6.20;1.00;;;;;;5070038;28;20413;-75
2021/03/29 04:52:46;;;;;;;3.07;2.00;;;6.10;1.00;;;;;;5056758;28;20159;-81
2021/03/29 04:58:34;;;;;;;3.65;1.92;;;6.00;1.00;;;;;;5074396;28;20194;-74
2021/03/29 05:01:03;;;;;;;5.80;2.37;;;6.00;1.00;;;;;;5075752;28;20167;-74
2021/03/29 05:03:29;;;;;;;4.97;1.80;;;;;;;;;;5074778;28;20286;-74
2021/03/29 05:06:09;;;;;;;2.70;1.50;;;5.90;1.00;;;;;;5076242;28;20753;-74
2021/03/29 05:08:39;;;;;;;3.80;1.90;;;5.90;1.00;;;;;;5076229;28;20801;-75
2021/03/29 05:11:10;;;;;;;11.60;2.47;;;5.90;1.00;;;;;;5081357;28;20416;-75
2021/03/29 05:13:39;;;;;;;1.60;1.50;;;5.80;1.00;;;;;;5088812;28;20418;-75
2021/03/29 05:16:09;;;;;;;8.17;2.27;;;5.80;1.00;;;;;;5056595;28;20787;-74
2021/03/29 05:18:39;;;;;;;2.83;2.15;;;5.80;1.00;;;;;;5075778;28;20374;-74
2021/03/29 05:21:09;;;;;;;6.47;2.88;;;5.70;1.00;;;;;;5058864;28;20176;-75
2021/03/29 05:23:35;;;;;;;5.57;2.20;;;;;;;;;;5067817;28;20706;-73
2021/03/29 05:26:09;;;;;;;2.60;1.85;;;5.70;1.00;;;;;;5058926;28;20819;-73
2021/03/29 05:28:35;;;;;;;7.83;2.30;;;;;;;;;;5067202;28;20528;-74
2021/03/29 05:31:09;;;;;;;4.72;1.45;;;5.80;1.00;;;;;;5056577;28;20475;-74
2021/03/29 05:33:35;;;;;;;3.87;2.13;;;5.90;1.00;;;;;;5055792;28;20163;-74
2021/03/29 05:36:01;;;;;;;3.87;2.00;;;;;;;;;;5055497;28;20496;-74
2021/03/29 05:38:27;;;;;;;35.43;6.23;;;6.10;1.00;;;;;;5070806;28;20175;-74
2021/03/29 05:40:53;;;;;;;5.50;2.80;;;6.20;1.00;;;;;;5078553;28;20504;-74
2021/03/29 05:43:19;;;;;;;4.30;1.80;;;6.30;1.00;;;;;;5082665;28;20174;-74
2021/03/29 05:45:51;;;;;;;4.07;2.50;;;6.40;1.00;;;;;;5067180;28;20559;-74
2021/03/29 05:48:20;;;;;;;4.07;2.30;;;6.50;1.00;;;;;;5074839;28;20414;-80
2021/03/29 05:54:09;;;;;;;10.03;3.20;;;6.80;1.00;;;;;;5057707;28;20386;-80
2021/03/29 05:59:56;;;;;;;6.60;2.37;;;6.90;1.00;;;;;;5064451;28;20416;-80
2021/03/29 06:09:07;;;;;;;3.27;2.23;;;7.20;1.00;;;;;;5068590;28;20444;-74
2021/03/29 06:11:40;;;;;;;2.77;2.30;;;7.20;1.00;;;;;;5054578;28;20738;-75
2021/03/29 06:14:17;;;;;;;11.60;2.80;;;7.30;1.00;;;;;;5073336;28;20413;-75
2021/03/29 06:16:58;;;;;;;5.40;2.80;;;7.40;1.00;;;;;;5059494;28;20445;-74
2021/03/29 06:19:43;;;;;;;5.60;2.80;;;7.40;1.00;;;;;;5054671;28;20440;-75
2021/03/29 06:22:31;;;;;;;7.43;2.70;;;7.40;1.00;;;;;;5068393;28;20462;-75
2021/03/29 06:25:08;;;;;;;4.00;2.97;;;7.50;1.00;;;;;;5071119;28;20504;-74
2021/03/29 06:28:03;;;;;;;11.20;2.97;;;7.60;1.00;;;;;;5057236;28;20425;-74
2021/03/29 06:30:36;;;;;;;5.10;2.83;;;7.70;1.00;;;;;;5070224;28;20458;-74
2021/03/29 06:33:16;;;;;;;6.10;2.30;;;7.80;1.00;;;;;;5055325;28;20418;-74
2021/03/29 06:35:51;;;;;;;15.87;2.57;;;;;;;;;;5055978;28;20469;-74
2021/03/29 06:38:17;;;;;;;13.73;3.03;;;8.00;1.00;;;;;;5063568;28;20413;-74
2021/03/29 06:40:47;;;;;;;8.13;2.87;;;8.20;1.00;;;;;;5074065;28;20477;-74
2021/03/29 06:43:19;;;;;;;7.50;2.83;;;8.30;1.00;;;;;;5074158;28;20159;-74
2021/03/29 06:45:45;;;;;;;8.27;3.47;;;8.50;1.00;;;;;;5066209;28;20837;-74
2021/03/29 06:48:23;;;;;;;5.90;2.30;;;8.70;1.00;;;;;;5073764;28;20443;-74
2021/03/29 06:51:03;;;;;;;7.60;3.20;;;8.80;1.00;;;;;;5073930;28;20415;-74
2021/03/29 06:53:33;;;;;;;11.73;3.37;;;8.90;1.00;;;;;;5055272;28;20812;-74
2021/03/29 06:56:33;;;;;;;6.83;3.17;;;9.10;1.00;;;;;;5073513;28;21161;-75
2021/03/29 06:59:19;;;;;;;10.33;3.93;;;9.30;1.00;;;;;;5084525;28;20903;-74
2021/03/29 07:01:48;;;;;;;4.50;2.83;;;9.50;1.00;;;;;;5064295;28;20432;-75
2021/03/29 07:04:17;;;;;;;6.53;3.47;;;9.60;1.00;;;;;;5059574;28;20457;-75
2021/03/29 07:06:43;;;;;;;6.33;3.00;;;9.70;1.00;;;;;;5054063;28;20446;-74
2021/03/29 07:09:10;;;;;;;3.73;2.47;;;9.80;1.00;;;;;;5053850;28;20932;-74
2021/03/29 07:11:39;;;;;;;4.47;2.57;;;9.90;1.00;;;;;;5057405;28;20625;-74
2021/03/29 07:14:07;;;;;;;3.70;2.37;;;10.00;1.00;;;;;;5073653;28;20776;-74
2021/03/29 07:16:33;;;;;;;3.30;2.47;;;10.10;1.00;;;;;;5073570;28;20433;-74
2021/03/29 07:19:03;;;;;;;5.67;2.70;;;10.10;1.00;;;;;;5073728;28;20417;-74
2021/03/29 07:21:30;;;;;;;7.47;3.30;;;10.20;1.00;;;;;;5072142;28;20406;-74
2021/03/29 07:24:03;;;;;;;6.87;2.23;;;;;;;;;;5070027;28;20484;-74
2021/03/29 07:26:34;;;;;;;7.93;2.77;;;10.40;1.00;;;;;;5069734;28;20833;-74
2021/03/29 07:29:15;;;;;;;5.83;2.97;;;10.50;1.00;;;;;;5067125;28;20497;-74
2021/03/29 07:31:42;;;;;;;4.60;2.70;;;10.50;1.00;;;;;;5067932;28;20412;-74
2021/03/29 07:34:11;;;;;;;6.93;2.97;;;10.60;1.00;;;;;;5053867;28;20464;-74
2021/03/29 07:36:51;;;;;;;8.30;3.30;;;10.70;1.00;;;;;;5067045;28;20903;-74
2021/03/29 07:39:39;;;;;;;7.40;3.03;;;10.90;1.00;;;;;;5070798;28;20993;-74
2021/03/29 07:42:23;;;;;;;6.60;2.53;;;11.00;1.00;;;;;;5072087;28;20767;-74
2021/03/29 07:44:53;;;;;;;3.40;2.70;;;11.10;1.00;;;;;;5068676;28;20431;-75
2021/03/29 07:47:44;;;;;;;7.63;2.93;;;11.20;1.00;;;;;;5070778;28;20798;-75
2021/03/29 07:50:38;;;;;;;6.90;2.70;;;11.30;1.00;;;;;;5066399;28;20461;-74
2021/03/29 07:53:06;;;;;;;5.03;2.70;;;11.40;1.00;;;;;;5040266;28;20471;-75
2021/03/29 07:56:01;;;;;;;3.20;2.43;;;11.50;1.00;;;;;;5054548;28;20478;-75
2021/03/29 07:58:27;;;;;;;13.57;3.97;;;;;;;;;;5037224;28;20550;-75
2021/03/29 08:00:58;;;;;;;5.70;2.60;;;11.60;1.00;;;;;;5034393;28;20398;-75
2021/03/29 08:03:24;;;;;;;7.83;3.07;;;11.70;1.00;;;;;;5043995;28;20422;-75
2021/03/29 08:05:52;;;;;;;5.03;2.33;;;11.80;1.00;;;;;;5034010;28;20920;-75
2021/03/29 08:08:27;;;;;;;4.07;1.87;;;11.90;1.00;;;;;;5039594;28;20562;-75
2021/03/29 08:11:14;;;;;;;3.53;2.37;;;12.00;1.00;;;;;;5047466;28;20446;-74
2021/03/29 08:13:52;;;;;;;5.77;2.87;;;12.20;1.00;;;;;;5047830;28;20422;-75
2021/03/29 08:16:20;;;;;;;3.87;2.30;;;12.20;1.00;;;;;;5049517;28;20546;-74
2021/03/29 08:19:17;;;;;;;10.87;2.50;;;12.20;1.00;;;;;;5053496;28;20403;-74
2021/03/29 08:21:54;;;;;;;5.50;2.80;;;;;;;;;;5046642;28;20417;-74
2021/03/29 08:24:33;;;;;;;3.90;2.20;;;12.50;1.00;;;;;;5052902;28;20424;-74
2021/03/29 08:27:01;;;;;;;4.33;2.03;;;12.60;1.00;;;;;;5045069;28;20440;-74
2021/03/29 08:29:38;;;;;;;3.43;2.13;;;12.70;1.00;;;;;;5059149;28;20433;-75
2021/03/29 08:32:04;;;;;;;4.50;2.13;;;12.80;1.00;;;;;;5074191;28;20776;-75
2021/03/29 08:34:52;;;;;;;2.73;2.00;;;12.90;1.00;;;;;;5075772;28;20400;-75
2021/03/29 08:37:22;;;;;;;7.87;2.50;;;13.00;1.00;;;;;;5067530;28;20707;-74
2021/03/29 08:39:53;;;;;;;7.57;2.17;;;13.10;1.00;;;;;;5075562;28;20504;-75
2021/03/29 08:42:21;;;;;;;4.97;2.43;;;13.10;1.00;;;;;;5068191;28;20421;-75
2021/03/29 08:44:52;;;;;;;11.33;3.00;;;13.20;1.00;;;;;;5071213;28;20943;-75
2021/03/29 08:47:24;;;;;;;4.90;2.47;;;13.30;1.00;;;;;;5070299;28;20421;-75
2021/03/29 08:50:01;;;;;;;8.00;2.20;;;13.40;1.00;;;;;;5075902;28;20398;-74
2021/03/29 08:52:49;;;;;;;8.67;3.37;;;13.50;1.00;;;;;;5075930;28;20417;-74
2021/03/29 08:55:34;;;;;;;6.43;2.03;;;13.50;1.00;;;;;;5074082;28;20558;-74
2021/03/29 08:58:04;;;;;;;2.70;2.10;;;13.60;1.00;;;;;;5078725;28;20444;-74
2021/03/29 09:00:38;;;;;;;6.60;2.20;;;13.80;1.00;;;;;;5076007;28;20393;-74
2021/03/29 09:03:04;;;;;;;5.53;2.03;;;13.90;1.00;;;;;;5077013;28;20400;-74
2021/03/29 09:05:33;;;;;;;4.50;2.47;;;14.00;1.00;;;;;;5062331;28;20411;-74
2021/03/29 09:08:11;;;;;;;4.10;1.80;;;14.10;1.00;;;;;;5064717;28;20472;-75
2021/03/29 09:10:37;;;;;;;5.33;2.27;;;;;;;;;;5076052;28;20403;-75
2021/03/29 09:13:05;;;;;;;3.33;1.93;;;14.30;1.00;;;;;;5075699;28;20927;-75
2021/03/29 09:15:51;;;;;;;7.13;1.97;;;14.30;1.00;;;;;;5074219;28;20454;-76
2021/03/29 09:18:22;;;;;;;2.70;1.73;;;14.40;1.00;;;;;;5075211;28;20463;-75
2021/03/29 09:20:52;;;;;;;2.97;1.80;;;14.40;1.00;;;;;;5069512;28;20926;-74
2021/03/29 09:23:28;;;;;;;3.90;2.20;;;14.40;1.00;;;;;;5075484;28;20922;-74
2021/03/29 09:26:03;;;;;;;4.80;2.33;;;14.50;1.00;;;;;;5077973;28;20412;-74
2021/03/29 09:31:13;;;;;;;4.93;1.97;;;14.70;1.00;;;;;;5067778;28;20406;-74
2021/03/29 09:33:47;;;;;;;9.30;2.03;;;14.90;1.00;;;;;;5055259;28;20383;-74
2021/03/29 09:36:14;;;;;;;6.73;1.50;;;15.00;1.00;;;;;;5062011;28;20453;-74
2021/03/29 09:38:43;;;;;;;6.47;2.30;;;15.00;1.00;;;;;;5061227;28;20508;-74
2021/03/29 09:41:16;;;;;;;4.70;2.40;;;15.20;1.00;;;;;;5075330;28;20391;-74
2021/03/29 09:43:44;;;;;;;3.73;2.10;;;15.40;1.00;;;;;;5075192;28;20450;-74
2021/03/29 09:46:10;;;;;;;17.37;2.97;;;15.40;1.00;;;;;;5075076;28;20415;-74
2021/03/29 09:48:35;;;;;;;5.80;2.27;;;15.60;1.00;;;;;;5075119;28;20455;-74
2021/03/29 09:51:29;;;;;;;6.33;2.60;;;15.70;1.00;;;;;;5074257;28;20860;-74
2021/03/29 09:53:55;;;;;;;5.90;1.87;;;;;;;;;;5072957;28;20510;-74
2021/03/29 09:56:29;;;;;;;7.43;2.00;;;15.90;1.00;;;;;;5073342;28;20509;-74
2021/03/29 09:58:56;;;;;;;6.43;2.63;;;;;;;;;;5074686;28;20513;-74
2021/03/29 10:01:26;;;;;;;5.77;2.17;;;16.10;1.00;;;;;;5072260;28;20357;-74
2021/03/29 10:03:59;;;;;;;4.40;2.07;;;16.20;1.00;;;;;;5062268;28;20467;-74
2021/03/29 10:06:31;;;;;;;6.63;2.07;;;16.30;1.00;;;;;;5054614;28;20421;-74
2021/03/29 10:09:00;;;;;;;4.03;2.00;;;16.30;1.00;;;;;;5054779;28;20385;-76
2021/03/29 10:11:27;;;;;;;4.50;2.37;;;16.30;1.00;;;;;;5055923;28;20406;-75
2021/03/29 10:14:04;;;;;;;5.13;1.97;;;16.50;1.00;;;;;;5071097;28;20395;-74
2021/03/29 10:16:31;;;;;;;10.27;2.03;;;16.50;1.00;;;;;;5074125;28;20456;-74
2021/03/29 10:19:12;;;;;;;1.50;1.40;;;16.50;1.00;;;;;;5065287;28;20463;-74
2021/03/29 10:22:04;;;;;;;3.37;1.80;;;16.50;1.00;;;;;;5094296;28;20404;-74
2021/03/29 10:24:32;;;;;;;9.07;2.57;;;16.40;1.00;;;;;;5070389;28;20481;-74
2021/03/29 10:27:06;;;;;;;4.67;1.93;;;16.40;1.00;;;;;;5070955;28;20428;-74
2021/03/29 10:29:40;;;;;;;3.87;2.17;;;16.40;1.00;;;;;;5071660;28;20955;-74
2021/03/29 10:32:19;;;;;;;3.43;1.83;;;16.50;1.00;;;;;;5073264;28;20433;-74
2021/03/29 10:34:49;;;;;;;5.03;1.40;;;16.50;1.00;;;;;;5073923;28;20495;-74
2021/03/29 10:37:23;;;;;;;3.67;1.67;;;16.60;1.00;;;;;;5074047;28;20394;-74
2021/03/29 10:40:15;;;;;;;13.50;1.80;;;16.70;1.00;;;;;;5079836;28;20891;-82
2021/03/29 10:46:03;;;;;;;2.03;1.53;;;16.80;1.00;;;;;;5073461;28;20909;-81
2021/03/29 10:49:09;;;;;;;5.00;1.97;;;17.00;1.00;;;;;;5073782;28;20365;-82
2021/03/29 10:52:10;;;;;;;5.80;1.77;;;17.10;1.00;;;;;;5061714;28;20434;-82
2021/03/29 10:55:21;;;;;;;2.50;1.50;;;17.20;1.00;;;;;;5073588;28;20369;-82
2021/03/29 10:57:51;;;;;;;6.63;2.00;;;17.30;1.00;;;;;;5079712;28;20396;-81
2021/03/29 11:00:33;;;;;;;4.10;1.90;;;17.40;1.00;;;;;;5085721;28;20368;-80
2021/03/29 11:06:21;;;;;;;2.67;1.97;;;17.60;1.00;;;;;;5073690;28;20374;-81
2021/03/29 11:09:21;;;;;;;7.17;2.70;;;17.60;1.00;;;;;;5071509;28;20376;-83
2021/03/29 11:11:57;;;;;;;3.97;2.00;;;17.60;1.00;;;;;;5052765;28;20553;-80
2021/03/29 11:17:51;;;;;;;7.63;1.83;;;17.80;1.00;;;;;;5057041;28;20429;-79
2021/03/29 11:20:39;;;;;;;9.60;2.50;;;17.90;1.00;;;;;;5073368;28;20448;-80
2021/03/29 11:23:15;;;;;;;6.23;1.97;;;17.90;1.00;;;;;;5073605;28;20931;-80
2021/03/29 11:25:41;;;;;;;4.70;2.17;;;18.10;1.00;;;;;;5070133;28;20763;-74
2021/03/29 11:28:08;;;;;;;3.47;2.00;;;18.10;1.00;;;;;;5072244;28;20439;-74
2021/03/29 11:30:33;;;;;;;3.97;2.10;;;18.20;1.00;;;;;;5072150;28;20194;-73
2021/03/29 11:32:59;;;;;;;2.60;1.80;;;18.20;1.00;;;;;;5073378;28;20387;-74
2021/03/29 11:42:09;;;;;;;4.43;2.00;;;18.60;1.00;;;;;;5073487;28;20410;-75
2021/03/29 11:44:39;;;;;;;4.47;2.17;;;18.80;1.00;;;;;;5059020;28;21260;-76
2021/03/29 11:47:15;;;;;;;7.47;2.50;;;18.90;1.00;;;;;;5075059;28;20193;-78
2021/03/29 11:49:51;;;;;;;11.57;2.40;;;19.10;1.00;;;;;;5073216;28;20528;-75
2021/03/29 11:52:17;;;;;;;5.90;2.30;;;19.10;1.00;;;;;;5073299;28;20434;-75
2021/03/29 11:54:57;;;;;;;6.40;2.40;;;19.20;1.00;;;;;;5070203;28;20437;-75
2021/03/29 11:57:33;;;;;;;2.20;1.83;;;19.30;1.00;;;;;;5057123;28;20522;-76
2021/03/29 12:00:01;;;;;;;2.70;1.83;;;19.20;1.00;;;;;;5072931;28;20443;-76
2021/03/29 12:02:39;;;;;;;3.60;1.97;;;19.20;1.00;;;;;;5073312;28;20408;-76
2021/03/29 12:09:00;;;;;;;6.97;1.80;;;19.40;1.00;;;;;;5068575;28;20588;-76
2021/03/29 12:14:12;;;;;;;3.83;1.70;;;19.60;1.00;;;;;;5049734;28;20445;-75
2021/03/29 12:23:21;;;;;;;3.40;1.47;;;19.90;1.00;;;;;;5030998;28;20371;-79
2021/03/29 12:29:40;;;;;;;6.87;2.20;;;20.00;1.00;;;;;;5038795;28;20838;-81
2021/03/29 12:32:27;;;;;;;6.47;2.00;;;20.10;1.00;;;;;;5048460;28;20433;-82
2021/03/29 12:34:58;;;;;;;4.10;1.97;;;20.20;1.00;;;;;;5051120;28;20432;-76
2021/03/29 12:37:31;;;;;;;6.20;1.93;;;20.30;1.00;;;;;;5052324;28;20429;-76
2021/03/29 12:40:04;;;;;;;3.43;1.57;;;20.40;1.00;;;;;;5054334;28;20433;-75
2021/03/29 12:42:34;;;;;;;5.90;1.80;;;20.40;1.00;;;;;;5054678;28;20401;-76
2021/03/29 12:45:38;;;;;;;5.03;1.80;;;20.60;1.00;;;;;;5055923;28;20509;-76
2021/03/29 12:58:08;;;;;;;4.70;1.60;;;20.80;1.00;;;;;;5014247;28;20475;-80
2021/03/29 13:14:01;;;;;;;4.97;1.50;;;21.10;1.00;;;;;;5032967;28;20413;-80
2021/03/29 13:16:39;;;;;;;2.60;1.13;;;21.10;1.00;;;;;;5033606;28;20466;-80
2021/03/29 13:19:45;;;;;;;1.60;0.90;;;21.10;1.00;;;;;;5033544;28;20431;-80
2021/03/29 13:25:32;;;;;;;3.37;1.37;;;21.40;1.00;;;;;;5075178;28;20404;-80
2021/03/29 13:28:21;;;;;;;3.53;1.50;;;21.50;1.00;;;;;;5075618;28;20399;-79
2021/03/29 13:31:18;;;;;;;4.33;1.60;;;21.50;1.00;;;;;;5069648;28;20192;-79
2021/03/29 13:34:21;;;;;;;2.70;1.27;;;21.60;1.00;;;;;;5081817;28;20454;-79
2021/03/29 13:36:46;;;;;;;3.83;1.20;;;21.70;1.00;;;;;;5072399;28;20850;-80
2021/03/29 13:39:54;;;;;;;1.77;1.40;;;21.90;1.00;;;;;;5085683;28;20415;-80
2021/03/29 13:46:15;;;;;;;4.07;1.30;;;21.90;1.00;;;;;;5075005;28;20811;-79
2021/03/29 13:52:04;;;;;;;4.20;1.20;;;21.90;1.00;;;;;;5072041;28;20908;-79
2021/03/29 13:54:35;;;;;;;5.57;1.43;;;22.00;1.00;;;;;;5074872;28;21087;-79
2021/03/29 14:00:28;;;;;;;4.67;1.87;;;22.20;1.00;;;;;;5074400;28;20414;-80
2021/03/29 14:03:00;;;;;;;3.30;1.17;;;22.30;1.00;;;;;;5074367;28;20409;-80
2021/03/29 14:08:47;;;;;;;2.20;1.30;;;22.40;1.00;;;;;;5074635;28;20386;-79
2021/03/29 14:11:33;;;;;;;4.73;1.40;;;22.40;1.00;;;;;;5074528;28;20914;-79
2021/03/29 14:14:23;;;;;;;2.10;1.60;;;22.50;1.00;;;;;;5074902;28;20177;-79
2021/03/29 14:17:22;;;;;;;4.20;1.20;;;22.60;1.00;;;;;;5074521;28;20441;-78
2021/03/29 14:23:10;;;;;;;4.57;1.30;;;22.70;1.00;;;;;;5054410;28;20393;-83
2021/03/29 14:25:57;;;;;;;3.90;1.60;;;22.70;1.00;;;;;;5054959;28;20397;-79
2021/03/29 14:29:03;;;;;;;4.40;1.30;;;22.60;1.00;;;;;;5074985;28;20162;-77
2021/03/29 14:31:46;;;;;;;3.57;1.60;;;22.70;1.00;;;;;;5066982;28;20402;-78
2021/03/29 14:34:24;;;;;;;4.90;1.60;;;22.80;1.00;;;;;;5070135;28;20435;-77
2021/03/29 14:39:47;;;;;;;3.73;1.20;;;22.80;1.00;;;;;;5073946;28;20421;-78
2021/03/29 14:42:48;;;;;;;2.20;1.20;;;22.90;1.00;;;;;;5056911;28;20198;-80
2021/03/29 14:52:21;;;;;;;1.90;1.10;;;22.90;1.00;;;;;;5057626;28;20403;-79
2021/03/29 14:58:21;;;;;;;1.90;1.23;;;22.90;1.00;;;;;;5083613;28;20450;-77
2021/03/29 15:01:23;;;;;;;6.93;1.37;;;22.80;1.00;;;;;;5094419;28;20387;-80
2021/03/29 15:07:16;;;;;;;2.90;1.57;;;22.50;1.00;;;;;;5073751;28;20420;-79
2021/03/29 15:09:42;;;;;;;4.40;1.40;;;22.60;1.00;;;;;;5073661;28;20426;-74
2021/03/29 15:12:10;;;;;;;2.43;1.37;;;22.80;1.00;;;;;;5069962;28;20771;-75
2021/03/29 15:14:40;;;;;;;2.60;1.30;;;23.10;1.00;;;;;;5056988;28;20201;-73
2021/03/29 15:17:10;;;;;;;3.20;1.30;;;23.90;1.00;;;;;;5053485;28;20443;-75
2021/03/29 15:19:41;;;;;;;2.30;1.13;;;25.00;1.00;;;;;;5071229;28;20412;-74
2021/03/29 15:22:08;;;;;;;2.60;1.43;;;25.80;1.00;;;;;;5073012;28;20505;-74
2021/03/29 15:24:51;;;;;;;5.97;1.50;;;27.00;1.00;;;;;;5073296;28;20388;-77
2021/03/29 15:27:21;;;;;;;1.63;1.23;;;28.30;1.00;;;;;;5067111;28;20722;-75
2021/03/29 15:29:51;;;;;;;3.57;1.67;;;28.20;1.00;;;;;;5072022;28;20801;-75
2021/03/29 15:32:21;;;;;;;2.87;1.40;;;29.00;1.00;;;;;;5072203;28;20437;-75
2021/03/29 15:34:57;;;;;;;1.33;1.23;;;29.30;1.00;;;;;;5072623;28;20454;-75
2021/03/29 15:37:27;;;;;;;1.30;0.90;;;29.80;1.00;;;;;;5073053;28;20892;-74
2021/03/29 15:39:53;;;;;;;9.23;1.57;;;29.30;1.00;;;;;;5072760;28;20405;-75